Time;durP1;ratioP1;P1;durP2;ratioP2;P2;SDS_P1;SDS_P2;PMS_P1;PMS_P2;Temp;Humidity;BMP_temperature;BMP_pressure;BME280_temperature;BME280_humidity;BME280_pressure;Samples;Min_cycle;Max_cycle;Signal;HPM_P1;HPM_P2
2022/01/03 00:01:20;;;;;;;7.35;2.17;;;;;;;10.48;98.68;99673.91;8357783;28;20464;-77
2022/01/03 00:05:22;;;;;;;6.70;1.88;;;;;;;9.95;100.00;99688.16;8368684;28;20406;-79
2022/01/03 00:09:24;;;;;;;6.18;1.30;;;;;;;9.58;100.00;99707.84;8373295;28;20061;-79
2022/01/03 00:13:26;;;;;;;7.30;2.03;;;;;;;9.21;100.00;99690.88;8368937;28;20627;-79
2022/01/03 00:17:28;;;;;;;5.33;1.20;;;;;;;9.01;100.00;99685.78;8381944;28;20096;-79
2022/01/03 00:21:45;;;;;;;3.38;1.10;;;;;;;8.90;100.00;99704.81;8369717;28;20287;-78
2022/01/03 00:25:51;;;;;;;7.07;1.35;;;;;;;8.81;100.00;99705.44;8374785;28;20382;-81
2022/01/03 00:29:52;;;;;;;6.55;1.48;;;;;;;8.88;100.00;99697.88;8363214;28;20119;-80
2022/01/03 00:33:56;;;;;;;7.50;1.50;;;;;;;8.89;100.00;99702.28;8361542;28;20073;-79
2022/01/03 00:38:00;;;;;;;8.88;2.10;;;;;;;8.87;100.00;99726.44;8374365;28;20036;-82
2022/01/03 00:42:07;;;;;;;5.57;1.35;;;;;;;8.84;100.00;99710.44;8368165;28;20075;-79
2022/01/03 00:46:09;;;;;;;5.15;1.38;;;;;;;8.80;100.00;99733.97;8365718;28;20037;-80
2022/01/03 00:50:15;;;;;;;7.70;1.20;;;;;;;8.74;100.00;99711.03;8374927;28;20049;-81
2022/01/03 00:54:17;;;;;;;5.40;1.25;;;;;;;8.69;100.00;99715.59;8366998;28;20049;-79
2022/01/03 00:58:20;;;;;;;2.33;0.63;;;;;;;8.55;100.00;99704.84;8362498;28;20072;-79
2022/01/03 01:02:21;;;;;;;0.90;0.57;;;;;;;8.49;100.00;99699.47;8367894;28;20040;-79
2022/01/03 01:06:25;;;;;;;9.32;1.02;;;;;;;8.42;100.00;99721.56;8355652;28;20033;-80
2022/01/03 01:10:29;;;;;;;3.90;0.68;;;;;;;8.33;100.00;99725.69;8373748;28;20037;-79
2022/01/03 01:14:31;;;;;;;5.32;0.80;;;;;;;8.23;100.00;99737.25;8361566;28;20048;-79
2022/01/03 01:18:36;;;;;;;3.00;0.70;;;;;;;8.11;100.00;99737.22;8386698;28;20033;-79
2022/01/03 01:22:41;;;;;;;5.47;0.82;;;;;;;8.01;100.00;99745.22;8374987;28;20036;-80
2022/01/03 01:31:04;;;;;;;3.08;0.82;;;;;;;7.83;100.00;99770.81;8380021;28;20604;-79
2022/01/03 01:35:06;;;;;;;2.95;0.88;;;;;;;7.84;100.00;99767.00;8394337;28;20049;-79
2022/01/03 01:39:10;;;;;;;6.07;0.98;;;;;;;7.84;100.00;99780.72;8375040;28;20074;-78
2022/01/03 01:43:29;;;;;;;2.92;1.23;;;;;;;7.88;100.00;99784.69;8364639;28;20460;-79
2022/01/03 01:47:37;;;;;;;4.78;1.08;;;;;;;7.96;100.00;99798.03;8362915;28;20539;-78
2022/01/03 01:51:43;;;;;;;4.75;1.02;;;;;;;8.00;100.00;99803.91;8358647;28;20092;-80
2022/01/03 01:55:48;;;;;;;5.22;0.77;;;;;;;8.02;100.00;99789.97;8360984;28;20064;-80
2022/01/03 02:00:03;;;;;;;5.25;1.02;;;;;;;8.03;100.00;99795.22;8364032;28;20064;-80
2022/01/03 02:04:23;;;;;;;3.45;0.90;;;;;;;7.91;100.00;99805.28;8362654;28;20045;-78
2022/01/03 02:08:42;;;;;;;6.63;0.90;;;;;;;7.78;100.00;99800.00;8380478;28;20044;-78
2022/01/03 02:12:46;;;;;;;6.82;1.20;;;;;;;7.63;100.00;99792.19;8362240;28;20059;-78
2022/01/03 02:16:51;;;;;;;3.50;0.82;;;;;;;7.54;100.00;99795.25;8359865;28;20044;-79
2022/01/03 02:20:54;;;;;;;2.50;0.88;;;;;;;7.43;100.00;99776.81;8364539;28;20139;-79
2022/01/03 02:24:56;;;;;;;4.22;0.95;;;;;;;7.38;100.00;99795.03;8380465;28;20417;-79
2022/01/03 02:28:58;;;;;;;3.10;0.88;;;;;;;7.31;100.00;99784.97;8375359;28;20067;-80
2022/01/03 02:33:01;;;;;;;6.25;0.93;;;;;;;7.29;100.00;99792.59;8366702;28;20478;-79
2022/01/03 02:37:03;;;;;;;2.17;0.77;;;;;;;7.27;100.00;99786.50;8361371;28;20057;-79
2022/01/03 02:41:05;;;;;;;5.47;0.90;;;;;;;7.28;100.00;99799.13;8373015;28;20060;-79
2022/01/03 02:45:10;;;;;;;7.03;2.50;;;;;;;7.34;100.00;99802.03;8351870;28;20066;-79
2022/01/03 02:49:12;;;;;;;2.88;0.70;;;;;;;7.46;100.00;99808.41;8384152;28;20040;-77
2022/01/03 02:53:14;;;;;;;2.45;0.90;;;;;;;7.53;100.00;99788.09;8383331;28;20044;-79
2022/01/03 02:57:22;;;;;;;4.80;0.95;;;;;;;7.62;100.00;99798.75;8365014;28;20066;-79
2022/01/03 03:01:25;;;;;;;3.60;1.00;;;;;;;7.66;100.00;99794.47;8357665;28;20037;-78
2022/01/03 03:05:30;;;;;;;2.47;0.90;;;;;;;7.74;100.00;99800.47;8362556;28;20052;-76
2022/01/03 03:09:32;;;;;;;3.97;1.23;;;;;;;7.75;100.00;99791.16;8367316;28;20112;-79
2022/01/03 03:13:34;;;;;;;2.05;0.80;;;;;;;7.80;100.00;99795.97;8365374;28;20045;-80
2022/01/03 03:17:39;;;;;;;5.35;1.08;;;;;;;7.85;100.00;99795.25;8350180;28;20060;-79
2022/01/03 03:21:41;;;;;;;8.30;1.55;;;;;;;7.86;100.00;99792.28;8381116;28;20132;-79
2022/01/03 03:25:43;;;;;;;7.47;0.90;;;;;;;7.90;100.00;99803.63;8366721;28;20045;-80
2022/01/03 03:29:50;;;;;;;7.97;1.20;;;;;;;7.94;100.00;99797.47;8364348;28;20466;-80
2022/01/03 03:33:53;;;;;;;8.20;1.10;;;;;;;7.92;100.00;99801.50;8363891;28;20045;-78
2022/01/03 03:37:55;;;;;;;7.10;1.30;;;;;;;7.97;100.00;99796.13;8342350;28;20048;-79
2022/01/03 03:41:57;;;;;;;5.80;0.90;;;;;;;7.95;100.00;99792.81;8374965;28;20045;-78
2022/01/03 03:45:59;;;;;;;6.72;1.10;;;;;;;7.97;100.00;99783.28;8359508;28;20395;-78
2022/01/03 03:50:02;;;;;;;3.87;1.23;;;;;;;7.96;100.00;99786.25;8364090;28;20061;-79
2022/01/03 03:54:04;;;;;;;;;;;;;;;7.89;100.00;99780.84;8378743;28;20045;-81
2022/01/03 03:58:06;;;;;;;8.27;0.93;;;;;;;7.89;100.00;99786.34;8362118;28;19924;-79
2022/01/03 04:02:08;;;;;;;9.32;1.02;;;;;;;7.93;100.00;99798.50;8371684;28;20047;-79
2022/01/03 04:06:11;;;;;;;7.43;1.35;;;;;;;8.05;100.00;99804.03;8357135;28;20048;-79
2022/01/03 04:10:15;;;;;;;4.30;1.00;;;;;;;8.08;100.00;99798.09;8371771;28;20470;-80
2022/01/03 04:14:19;;;;;;;5.85;1.35;;;;;;;8.15;100.00;99795.22;8363415;28;20294;-81
2022/01/03 04:18:21;;;;;;;5.65;1.20;;;;;;;8.19;100.00;99794.53;8355220;28;20402;-79
2022/01/03 04:22:22;;;;;;;7.15;2.05;;;;;;;8.21;100.00;99783.34;8353507;28;20174;-79
2022/01/03 04:26:24;;;;;;;6.05;1.48;;;;;;;8.25;100.00;99781.78;8344660;28;20060;-79
2022/01/03 04:30:26;;;;;;;6.10;1.40;;;;;;;8.31;100.00;99782.75;8361081;28;20044;-79
2022/01/03 04:34:28;;;;;;;10.80;1.40;;;;;;;8.35;100.00;99784.78;8354142;28;20302;-79
2022/01/03 04:38:32;;;;;;;5.03;2.03;;;;;;;8.42;100.00;99790.22;8347903;28;20623;-79
2022/01/03 04:42:35;;;;;;;7.57;1.20;;;;;;;8.48;100.00;99799.41;8340769;28;20139;-78
2022/01/03 04:46:37;;;;;;;4.95;1.08;;;;;;;8.50;100.00;99803.59;8356490;28;20528;-79
2022/01/03 04:50:39;;;;;;;3.77;1.10;;;;;;;8.46;100.00;99824.38;8373717;28;20143;-79
2022/01/03 04:54:40;;;;;;;10.93;1.55;;;;;;;8.43;100.00;99828.41;8371494;28;20078;-78
2022/01/03 04:58:42;;;;;;;5.22;1.30;;;;;;;8.46;100.00;99807.06;8352386;28;20459;-79
2022/01/03 05:02:45;;;;;;;10.32;1.40;;;;;;;8.42;100.00;99840.47;8361700;28;20127;-80
2022/01/03 05:06:48;;;;;;;;;;;;;;;8.37;100.00;99833.97;8362261;28;20057;-80
2022/01/03 05:10:49;;;;;;;7.90;1.40;;;;;;;8.27;100.00;99807.09;8360449;28;19955;-79
2022/01/03 05:14:52;;;;;;;10.93;1.50;;;;;;;8.13;100.00;99795.47;8358316;28;20040;-80
2022/01/03 05:18:53;;;;;;;8.02;1.60;;;;;;;8.06;100.00;99791.16;8358359;28;20045;-80
2022/01/03 05:22:55;;;;;;;7.90;1.25;;;;;;;8.05;100.00;99781.25;8367280;28;20045;-78
2022/01/03 05:26:58;;;;;;;;;;;;;;;8.06;100.00;99786.53;8364111;28;20040;-80
2022/01/03 05:31:01;;;;;;;7.80;1.50;;;;;;;8.04;100.00;99783.16;8383133;28;20047;-79
2022/01/03 05:35:05;;;;;;;9.70;1.35;;;;;;;8.07;100.00;99779.13;8366006;28;20049;-79
2022/01/03 05:39:07;;;;;;;9.53;1.27;;;;;;;8.06;100.00;99791.16;8386861;28;20044;-81
2022/01/03 05:43:10;;;;;;;6.55;2.25;;;;;;;8.05;100.00;99792.22;8365252;28;20387;-79
2022/01/03 05:47:13;;;;;;;8.32;1.65;;;;;;;8.13;100.00;99794.66;8376538;28;20037;-80
2022/01/03 05:51:16;;;;;;;8.05;2.42;;;;;;;8.16;100.00;99807.91;8367570;28;20425;-79
2022/01/03 05:55:20;;;;;;;7.75;1.40;;;;;;;8.19;100.00;99804.69;8367267;28;20048;-81
2022/01/03 05:59:22;;;;;;;10.27;2.10;;;;;;;8.25;100.00;99816.66;8368620;28;20723;-81
2022/01/03 06:03:27;;;;;;;8.50;1.45;;;;;;;8.28;100.00;99817.00;8379339;28;20510;-80
2022/01/03 06:07:31;;;;;;;5.13;1.13;;;;;;;8.23;100.00;99809.47;8374545;28;20065;-81
2022/01/03 06:11:33;;;;;;;8.30;1.30;;;;;;;8.25;100.00;99801.00;8383039;28;20497;-81
2022/01/03 06:15:37;;;;;;;;;;;;;;;8.20;100.00;99798.13;8382981;28;20064;-82
2022/01/03 06:19:40;;;;;;;7.07;1.35;;;;;;;8.09;100.00;99790.69;8368922;28;19924;-83
2022/01/03 06:23:42;;;;;;;6.63;1.73;;;;;;;7.98;100.00;99795.91;8370164;28;20049;-82
2022/01/03 06:27:45;;;;;;;13.45;2.47;;;;;;;7.85;100.00;99790.63;8379131;28;20048;-81
2022/01/03 06:31:48;;;;;;;9.20;2.10;;;;;;;7.79;100.00;99769.59;8391439;28;20135;-82
2022/01/03 06:35:50;;;;;;;12.07;2.08;;;;;;;7.67;100.00;99777.75;8380834;28;20294;-81
2022/01/03 06:39:52;;;;;;;6.53;1.75;;;;;;;7.65;100.00;99781.84;8371269;28;20147;-81
2022/01/03 06:43:54;;;;;;;9.60;1.73;;;;;;;7.58;100.00;99783.81;8366699;28;20061;-81
2022/01/03 06:47:56;;;;;;;13.10;2.70;;;;;;;7.51;100.00;99775.69;8371962;28;20044;-81
2022/01/03 06:51:59;;;;;;;10.95;2.30;;;;;;;7.46;100.00;99783.75;8375473;28;20053;-80
2022/01/03 06:56:01;;;;;;;7.57;2.15;;;;;;;7.40;100.00;99770.97;8373423;28;20437;-81
2022/01/03 07:00:05;;;;;;;15.45;2.65;;;;;;;7.37;100.00;99777.72;8365336;28;20482;-80
2022/01/03 07:04:07;;;;;;;12.57;2.00;;;;;;;7.42;100.00;99769.66;8363892;28;20106;-80
2022/01/03 07:08:09;;;;;;;12.57;2.20;;;;;;;7.53;100.00;99776.28;8380606;28;20097;-81
2022/01/03 07:12:11;;;;;;;8.63;2.25;;;;;;;7.55;100.00;99763.16;8360736;28;20096;-80
2022/01/03 07:20:34;;;;;;;14.18;2.60;;;;;;;7.49;100.00;99761.34;8362163;28;20125;-80
2022/01/03 07:24:37;;;;;;;11.30;2.63;;;;;;;7.47;100.00;99755.28;8383858;28;20108;-79
2022/01/03 07:28:38;;;;;;;12.98;2.58;;;;;;;7.45;100.00;99757.41;8368763;28;20057;-79
2022/01/03 07:32:42;;;;;;;13.52;3.17;;;;;;;7.44;100.00;99750.25;8377457;28;20086;-80
2022/01/03 07:36:43;;;;;;;13.40;3.42;;;;;;;7.45;100.00;99749.19;8368658;28;20040;-81
2022/01/03 07:40:45;;;;;;;12.27;2.95;;;;;;;7.44;100.00;99751.09;8380622;28;20057;-80
2022/01/03 07:44:46;;;;;;;14.40;2.45;;;;;;;7.54;100.00;99756.84;8368212;28;20129;-80
2022/01/03 07:48:48;;;;;;;20.85;3.10;;;;;;;7.72;100.00;99758.72;8369264;28;20116;-78
2022/01/03 07:52:49;;;;;;;12.48;2.25;;;;;;;7.96;100.00;99758.78;8359422;28;20093;-78
2022/01/03 07:56:51;;;;;;;12.15;2.40;;;;;;;8.09;100.00;99758.63;8363030;28;20194;-80
2022/01/03 08:00:52;;;;;;;14.52;2.63;;;;;;;8.25;100.00;99761.75;8384085;28;20115;-79
2022/01/03 08:04:55;;;;;;;14.23;2.80;;;;;;;8.34;100.00;99774.06;8378722;28;20049;-79
2022/01/03 08:08:56;;;;;;;17.60;3.60;;;;;;;8.42;100.00;99782.81;8392262;28;20540;-80
2022/01/03 08:12:58;;;;;;;12.00;2.63;;;;;;;8.46;100.00;99768.63;8362237;28;20045;-80
2022/01/03 08:16:59;;;;;;;14.40;2.63;;;;;;;8.54;100.00;99776.50;8366140;28;20080;-79
2022/01/03 08:21:01;;;;;;;14.48;2.47;;;;;;;8.57;100.00;99771.38;8364849;28;20596;-79
2022/01/03 08:25:03;;;;;;;12.38;2.40;;;;;;;8.67;100.00;99768.03;8382459;28;20052;-79
2022/01/03 08:29:09;;;;;;;15.45;2.90;;;;;;;8.72;100.00;99761.81;8371719;28;20047;-79
2022/01/03 08:33:10;;;;;;;13.15;2.63;;;;;;;8.81;100.00;99763.97;8392194;28;20060;-80
2022/01/03 08:37:12;;;;;;;14.45;2.60;;;;;;;8.90;100.00;99759.78;8396399;28;20028;-79
2022/01/03 08:41:14;;;;;;;17.67;2.75;;;;;;;8.98;100.00;99749.47;8380021;28;20109;-80
2022/01/03 08:45:15;;;;;;;13.85;2.67;;;;;;;9.04;100.00;99763.13;8366224;28;20136;-80
2022/01/03 08:49:18;;;;;;;14.45;2.40;;;;;;;9.07;100.00;99754.38;8365074;28;20076;-79
2022/01/03 08:53:25;;;;;;;13.30;2.67;;;;;;;8.98;100.00;99747.56;8362633;28;20123;-81
2022/01/03 08:57:26;;;;;;;14.25;2.65;;;;;;;9.00;100.00;99755.59;8360639;28;20060;-79
2022/01/03 09:01:28;;;;;;;17.40;3.00;;;;;;;9.06;100.00;99757.38;8368857;28;20756;-82
2022/01/03 09:05:29;;;;;;;14.90;2.75;;;;;;;9.03;100.00;99764.19;8383860;28;20114;-81
2022/01/03 09:09:32;;;;;;;20.60;2.42;;;;;;;8.94;100.00;99771.13;8390124;28;20518;-82
2022/01/03 09:13:35;;;;;;;17.15;2.83;;;;;;;8.96;100.00;99763.47;8358035;28;20048;-82
2022/01/03 09:17:37;;;;;;;16.08;2.58;;;;;;;8.96;100.00;99774.47;8361982;28;20052;-81
2022/01/03 09:21:39;;;;;;;13.52;3.40;;;;;;;8.96;100.00;99762.66;8381945;28;20045;-81
2022/01/03 09:29:42;;;;;;;15.05;2.47;;;;;;;9.01;100.00;99771.00;8377493;28;20083;-80
2022/01/03 09:33:43;;;;;;;20.10;2.67;;;;;;;9.05;100.00;99770.28;8382671;28;20506;-79
2022/01/03 09:37:45;;;;;;;18.45;3.08;;;;;;;9.07;100.00;99762.63;8374861;28;20076;-81
2022/01/03 09:41:56;;;;;;;9.23;2.80;;;;;;;9.16;100.00;99774.09;8360954;28;20116;-81
2022/01/03 09:46:01;;;;;;;17.65;2.63;;;;;;;9.18;100.00;99769.19;8367661;28;20048;-79
2022/01/03 09:50:04;;;;;;;14.05;2.88;;;;;;;9.13;100.00;99769.91;8364134;28;20124;-79
2022/01/03 09:54:10;;;;;;;8.52;2.08;;;;;;;9.25;100.00;99772.66;8348280;28;20072;-78
2022/01/03 09:58:14;;;;;;;13.27;2.38;;;;;;;9.29;100.00;99762.81;8342246;28;20053;-79
2022/01/03 10:02:17;;;;;;;19.38;4.30;;;;;;;9.31;100.00;99762.56;8391403;28;20474;-80
2022/01/03 10:06:20;;;;;;;12.73;3.20;;;;;;;9.30;100.00;99749.91;8365742;28;20087;-78
2022/01/03 10:10:22;;;;;;;12.45;2.97;;;;;;;9.38;100.00;99744.03;8354062;28;20124;-79
2022/01/03 10:14:23;;;;;;;12.40;2.03;;;;;;;9.46;100.00;99743.66;8349357;28;20072;-79
2022/01/03 10:18:26;;;;;;;13.60;2.67;;;;;;;9.56;100.00;99746.59;8365851;28;20153;-79
2022/01/03 10:22:31;;;;;;;12.00;2.88;;;;;;;9.62;100.00;99743.97;8370126;28;20049;-78
2022/01/03 10:26:33;;;;;;;18.25;3.25;;;;;;;9.63;100.00;99732.69;8367292;28;20115;-76
2022/01/03 10:30:40;;;;;;;13.50;2.72;;;;;;;9.70;100.00;99730.66;8365764;28;20104;-76
2022/01/03 10:34:45;;;;;;;10.30;2.67;;;;;;;9.76;100.00;99728.81;8364371;28;20044;-78
2022/01/03 10:39:19;;;;;;;12.88;2.03;;;;;;;9.71;100.00;99734.22;8365646;28;20037;-76
2022/01/03 10:43:22;;;;;;;17.83;3.53;;;;;;;9.74;100.00;99723.56;8364307;28;20086;-77
2022/01/03 10:47:32;;;;;;;17.58;3.05;;;;;;;9.76;100.00;99713.16;8360570;28;20490;-78
2022/01/03 10:51:34;;;;;;;14.10;3.35;;;;;;;9.81;100.00;99699.50;8357868;28;20042;-78
2022/01/03 10:55:36;;;;;;;15.45;2.85;;;;;;;9.85;100.00;99693.50;8361747;28;20402;-77
2022/01/03 10:59:38;;;;;;;9.02;2.30;;;;;;;9.89;100.00;99684.47;8365478;28;20043;-77
2022/01/03 11:03:43;;;;;;;6.78;2.05;;;;;;;10.01;100.00;99685.22;8345555;28;20131;-79
2022/01/03 11:11:49;;;;;;;11.07;1.98;;;;;;;10.07;99.05;99674.31;8391870;28;20049;-79
2022/01/03 11:16:06;;;;;;;16.40;2.50;;;;;;;10.11;97.97;99661.69;8360827;28;20076;-79
2022/01/03 11:20:20;;;;;;;15.15;2.85;;;;;;;10.17;97.10;99661.56;8356052;28;20041;-79
2022/01/03 11:24:22;;;;;;;16.33;2.35;;;;;;;10.31;96.84;99652.97;8353156;28;20068;-79
2022/01/03 11:28:27;;;;;;;24.05;4.43;;;;;;;10.51;95.57;99644.19;8364472;28;20534;-79
2022/01/03 11:32:30;;;;;;;13.57;2.63;;;;;;;10.58;94.04;99642.06;8357477;28;20176;-79
2022/01/03 11:36:31;;;;;;;9.38;1.92;;;;;;;10.60;93.75;99634.41;8362524;28;20081;-79
2022/01/03 11:40:34;;;;;;;12.75;2.00;;;;;;;10.63;93.58;99637.47;8363030;28;20506;-79
2022/01/03 11:44:37;;;;;;;15.25;2.55;;;;;;;10.67;92.90;99624.00;8361324;28;20060;-79
2022/01/03 11:48:39;;;;;;;7.78;2.03;;;;;;;10.75;93.30;99618.06;8362088;28;20040;-79
2022/01/03 11:52:42;;;;;;;12.82;2.42;;;;;;;10.91;93.21;99613.56;8369607;28;20076;-80
2022/01/03 11:56:49;;;;;;;14.85;2.58;;;;;;;11.01;93.27;99618.38;8372797;28;20622;-80
2022/01/03 12:05:39;;;;;;;12.32;2.10;;;;;;;11.03;91.32;99602.41;8379477;28;20469;-78
2022/01/03 12:09:44;;;;;;;8.98;1.83;;;;;;;11.10;90.21;99600.28;8364016;28;20067;-79
2022/01/03 12:13:46;;;;;;;17.83;2.38;;;;;;;11.11;90.66;99600.03;8361865;28;20095;-81
2022/01/03 12:17:48;;;;;;;13.80;1.92;;;;;;;11.06;90.46;99610.16;8361675;28;20139;-80
2022/01/03 12:21:53;;;;;;;15.32;2.78;;;;;;;11.09;90.50;99604.94;8377763;28;20051;-80
2022/01/03 12:26:17;;;;;;;6.55;2.00;;;;;;;11.17;90.74;99587.94;8363981;28;20040;-79
2022/01/03 12:30:20;;;;;;;11.40;2.28;;;;;;;11.11;90.39;99586.22;8341153;28;20041;-78
2022/01/03 12:34:22;;;;;;;8.73;2.08;;;;;;;11.11;90.91;99579.88;8372618;28;20052;-79
2022/01/03 12:38:27;;;;;;;11.43;2.08;;;;;;;11.04;90.37;99573.75;8363504;28;20080;-79
2022/01/03 12:42:53;;;;;;;11.98;1.90;;;;;;;11.15;90.30;99575.50;8371764;28;20036;-79
2022/01/03 12:47:15;;;;;;;13.82;3.15;;;;;;;11.17;89.80;99563.13;8363982;28;20051;-80
2022/01/03 12:51:17;;;;;;;14.55;3.80;;;;;;;11.20;89.49;99556.28;8364140;28;20064;-78
2022/01/03 12:55:37;;;;;;;11.68;2.67;;;;;;;11.17;88.69;99540.25;8364758;28;20072;-80
2022/01/03 12:59:38;;;;;;;14.85;2.40;;;;;;;11.23;89.39;99541.13;8363728;28;20041;-79
2022/01/03 13:03:43;;;;;;;14.32;2.47;;;;;;;11.20;89.44;99545.25;8345358;28;20091;-79
2022/01/03 13:07:46;;;;;;;12.55;3.22;;;;;;;11.18;89.24;99536.38;8373524;28;20071;-79
2022/01/03 13:11:49;;;;;;;12.65;2.40;;;;;;;11.13;89.19;99525.31;8369828;28;20048;-80
2022/01/03 13:15:51;;;;;;;10.82;2.50;;;;;;;11.16;89.51;99522.88;8364450;28;20056;-79
2022/01/03 13:20:00;;;;;;;9.85;1.95;;;;;;;11.18;89.49;99517.94;8368034;28;20045;-80
2022/01/03 13:24:06;;;;;;;5.60;1.98;;;;;;;11.08;88.54;99514.22;8359910;28;20087;-80
2022/01/03 13:28:11;;;;;;;9.57;2.10;;;;;;;10.96;87.56;99511.63;8363441;28;20123;-78
2022/01/03 13:32:14;;;;;;;10.95;2.00;;;;;;;11.02;88.01;99501.50;8366725;28;20524;-81
2022/01/03 13:36:18;;;;;;;8.13;1.98;;;;;;;10.97;87.38;99507.78;8368456;28;20077;-80
2022/01/03 13:40:23;;;;;;;15.93;2.08;;;;;;;10.93;86.73;99506.63;8365708;28;20122;-81
2022/01/03 13:44:40;;;;;;;13.82;2.00;;;;;;;11.03;87.30;99492.94;8381993;28;20044;-80
2022/01/03 13:53:04;;;;;;;6.00;1.95;;;;;;;10.92;88.34;99486.50;8375039;28;20471;-80
2022/01/03 13:57:08;;;;;;;11.18;1.63;;;;;;;10.87;88.41;99471.84;8391937;28;20418;-80
2022/01/03 14:01:10;;;;;;;7.95;2.08;;;;;;;10.76;89.09;99468.13;8360359;28;20124;-80
2022/01/03 14:05:19;;;;;;;10.27;2.15;;;;;;;10.73;90.12;99479.69;8377819;28;20040;-79
2022/01/03 14:09:20;;;;;;;7.00;2.08;;;;;;;10.67;90.03;99464.19;8377315;28;20060;-79
2022/01/03 14:13:42;;;;;;;9.52;1.85;;;;;;;10.65;89.95;99455.38;8360380;28;20132;-79
2022/01/03 14:17:51;;;;;;;8.35;1.70;;;;;;;10.66;89.64;99448.75;8376087;28;20053;-80
2022/01/03 14:21:53;;;;;;;8.85;1.63;;;;;;;10.71;89.88;99454.31;8384038;28;20052;-80
2022/01/03 14:26:12;;;;;;;10.03;2.03;;;;;;;10.70;90.06;99450.72;8375922;28;20080;-81
2022/01/03 14:30:37;;;;;;;8.60;1.70;;;;;;;10.61;89.38;99449.50;8382482;28;20040;-79
2022/01/03 14:34:39;;;;;;;11.13;1.73;;;;;;;10.69;88.70;99439.97;8384283;28;20049;-79
2022/01/03 14:38:45;;;;;;;10.85;1.95;;;;;;;10.67;88.16;99431.94;8365992;28;20080;-80
2022/01/03 14:42:52;;;;;;;7.03;1.73;;;;;;;10.68;87.15;99432.81;8374750;28;20080;-82
2022/01/03 14:47:08;;;;;;;10.48;1.50;;;;;;;10.66;87.38;99437.72;8377611;28;20059;-80
2022/01/03 14:51:12;;;;;;;7.18;1.75;;;;;;;10.67;87.74;99420.91;8373981;28;20402;-80
2022/01/03 14:55:26;;;;;;;8.10;1.77;;;;;;;10.73;87.49;99410.78;8375803;28;20056;-80
2022/01/03 14:59:29;;;;;;;8.20;2.45;;;;;;;10.72;87.89;99403.63;8363920;28;20075;-80
2022/01/03 15:03:31;;;;;;;8.68;2.40;;;;;;;10.64;87.97;99393.06;8378851;28;20071;-80
2022/01/03 15:07:36;;;;;;;12.27;2.47;;;;;;;10.64;88.42;99387.53;8380024;28;20045;-78
2022/01/03 15:11:39;;;;;;;8.05;1.65;;;;;;;10.61;88.17;99382.56;8392587;28;20056;-80
2022/01/03 15:15:43;;;;;;;10.25;2.13;;;;;;;10.58;88.43;99372.88;8383761;28;20041;-80
2022/01/03 15:19:44;;;;;;;5.93;2.17;;;;;;;10.51;88.54;99376.97;8389719;28;20068;-80
2022/01/03 15:23:46;;;;;;;11.07;2.20;;;;;;;10.52;88.78;99370.34;8386452;28;20045;-79
2022/01/03 15:27:48;;;;;;;8.18;1.88;;;;;;;10.53;89.04;99367.34;8381920;28;20094;-80
2022/01/03 15:31:49;;;;;;;9.60;1.80;;;;;;;10.46;88.42;99367.53;8367533;28;20140;-80
2022/01/03 15:35:53;;;;;;;6.70;1.85;;;;;;;10.47;87.29;99369.22;8372694;28;20409;-78
2022/01/03 15:39:54;;;;;;;;;;;;;;;10.46;86.77;99375.81;8367543;28;20048;-78
2022/01/03 15:43:56;;;;;;;7.70;1.80;;;;;;;10.46;88.99;99377.72;8358865;28;19956;-78
2022/01/03 15:47:57;;;;;;;8.35;2.25;;;;;;;10.30;91.30;99371.25;8353677;28;20472;-77
2022/01/03 15:51:59;;;;;;;5.43;1.70;;;;;;;10.02;94.57;99383.25;8350627;28;20128;-78
2022/01/03 15:56:01;;;;;;;12.00;2.67;;;;;;;9.92;94.87;99366.63;8353313;28;20539;-77
2022/01/03 16:00:08;;;;;;;10.60;1.85;;;;;;;9.77;97.04;99362.59;8358062;28;20060;-77
2022/01/03 16:04:12;;;;;;;9.25;2.08;;;;;;;9.74;97.32;99365.03;8354308;28;20140;-78
2022/01/03 16:08:14;;;;;;;12.57;2.15;;;;;;;9.71;97.48;99351.78;8393689;28;20134;-76
2022/01/03 16:12:15;;;;;;;12.10;3.17;;;;;;;9.67;98.05;99339.63;8362212;28;20108;-76
2022/01/03 16:16:18;;;;;;;12.90;2.83;;;;;;;9.70;97.56;99345.44;8356329;28;20049;-79
2022/01/03 16:20:19;;;;;;;10.60;2.67;;;;;;;9.64;98.02;99340.13;8359543;28;20045;-78
2022/01/03 16:24:21;;;;;;;10.15;2.47;;;;;;;9.70;97.40;99339.13;8355668;28;20136;-79
2022/01/03 16:28:24;;;;;;;7.90;2.45;;;;;;;9.63;97.79;99330.22;8375442;28;20048;-78
2022/01/03 16:32:25;;;;;;;14.15;2.28;;;;;;;9.67;98.05;99323.94;8360541;28;20127;-78
2022/01/03 16:36:27;;;;;;;13.85;2.28;;;;;;;9.63;97.89;99321.94;8368348;28;20060;-78
2022/01/03 16:40:29;;;;;;;7.18;1.92;;;;;;;9.62;97.83;99318.38;8386182;28;20052;-78
2022/01/03 16:44:32;;;;;;;8.25;1.95;;;;;;;9.64;97.49;99302.47;8362587;28;20099;-79
2022/01/03 16:48:34;;;;;;;7.60;2.40;;;;;;;9.69;97.12;99294.25;8362294;28;20060;-79
2022/01/03 16:52:36;;;;;;;9.93;2.70;;;;;;;9.79;96.12;99290.81;8361233;28;20064;-79
2022/01/03 16:56:37;;;;;;;9.70;3.35;;;;;;;9.77;96.53;99284.72;8357975;28;20562;-77
2022/01/03 17:00:39;;;;;;;8.95;2.70;;;;;;;9.74;96.91;99279.72;8359966;28;20401;-78
2022/01/03 17:04:41;;;;;;;11.82;4.60;;;;;;;9.77;95.87;99282.78;8358099;28;20123;-78
2022/01/03 17:08:43;;;;;;;8.95;2.47;;;;;;;9.78;96.01;99283.63;8373375;28;20037;-77
2022/01/03 17:12:45;;;;;;;6.25;1.73;;;;;;;9.78;95.21;99275.38;8370495;28;20033;-78
2022/01/03 17:16:50;;;;;;;10.05;2.00;;;;;;;9.81;95.50;99269.34;8358989;28;20144;-78
2022/01/03 17:20:51;;;;;;;5.72;2.33;;;;;;;9.80;95.54;99263.00;8373691;28;20037;-77
2022/01/03 17:24:53;;;;;;;5.63;1.95;;;;;;;9.78;95.46;99256.94;8367119;28;20073;-78
2022/01/03 17:28:55;;;;;;;9.45;2.22;;;;;;;9.78;96.06;99247.84;8375070;28;20044;-78
2022/01/03 17:32:56;;;;;;;5.20;1.83;;;;;;;9.73;96.13;99250.56;8388987;28;20049;-79
2022/01/03 17:36:58;;;;;;;12.23;3.10;;;;;;;9.76;96.59;99244.53;8375395;28;20048;-78
2022/01/03 17:41:00;;;;;;;7.18;2.00;;;;;;;9.75;96.94;99234.59;8382300;28;20040;-78
2022/01/03 17:45:03;;;;;;;10.65;2.42;;;;;;;9.74;97.23;99228.28;8366933;28;20552;-79
2022/01/03 17:49:04;;;;;;;9.10;2.80;;;;;;;9.74;97.90;99227.47;8364833;28;20120;-79
2022/01/03 17:53:08;;;;;;;8.27;1.92;;;;;;;9.73;97.97;99225.81;8345626;28;20083;-78
2022/01/03 17:57:10;;;;;;;6.40;1.55;;;;;;;9.76;98.18;99228.03;8364197;28;20056;-78
2022/01/03 18:01:15;;;;;;;9.27;2.00;;;;;;;9.67;99.13;99221.34;8369387;28;20040;-78
2022/01/03 18:05:16;;;;;;;6.97;1.85;;;;;;;9.57;100.00;99224.78;8365414;28;20132;-78
2022/01/03 18:09:18;;;;;;;4.93;1.95;;;;;;;9.56;99.65;99201.94;8389470;28;20044;-79
2022/01/03 18:13:21;;;;;;;11.38;2.55;;;;;;;9.56;100.00;99179.13;8374318;28;20068;-78
2022/01/03 18:17:22;;;;;;;8.38;1.70;;;;;;;9.53;99.18;99174.97;8379776;28;20099;-79
2022/01/03 18:21:24;;;;;;;8.40;1.92;;;;;;;9.59;98.93;99167.59;8377719;28;20060;-78
2022/01/03 18:25:26;;;;;;;6.55;2.20;;;;;;;9.58;98.11;99160.44;8360475;28;20119;-79
2022/01/03 18:29:28;;;;;;;9.80;1.95;;;;;;;9.68;97.28;99173.47;8364416;28;20033;-79
2022/01/03 18:33:29;;;;;;;5.72;1.60;;;;;;;9.73;96.46;99177.09;8363728;28;20055;-78
2022/01/03 18:37:31;;;;;;;10.05;1.80;;;;;;;9.73;96.31;99173.53;8372702;28;20127;-79
2022/01/03 18:41:33;;;;;;;8.57;2.13;;;;;;;9.79;95.78;99167.81;8371315;28;20469;-79
2022/01/03 18:45:37;;;;;;;7.37;1.93;;;;;;;9.80;95.06;99163.13;8362869;28;20409;-79
2022/01/03 18:49:39;;;;;;;11.73;1.80;;;;;;;9.89;94.33;99155.25;8363671;28;20090;-79
2022/01/03 18:53:41;;;;;;;5.20;1.75;;;;;;;9.91;94.05;99147.56;8358189;28;20083;-80
2022/01/03 18:57:42;;;;;;;7.45;1.85;;;;;;;9.91;92.62;99156.63;8361989;28;20108;-80
2022/01/03 19:01:45;;;;;;;10.55;1.67;;;;;;;9.95;92.00;99149.50;8381933;28;20812;-81
2022/01/03 19:05:47;;;;;;;5.00;1.50;;;;;;;10.00;91.20;99157.81;8375837;28;20051;-81
2022/01/03 19:09:49;;;;;;;4.82;1.30;;;;;;;10.01;91.20;99142.94;8376797;28;20449;-81
2022/01/03 19:13:53;;;;;;;7.57;1.83;;;;;;;10.08;90.90;99136.41;8365242;28;20060;-79
2022/01/03 19:17:54;;;;;;;8.40;1.90;;;;;;;10.13;91.21;99130.94;8368540;28;20049;-80
2022/01/03 19:21:57;;;;;;;6.10;2.17;;;;;;;10.09;91.68;99130.66;8380055;28;20096;-82
2022/01/03 19:25:58;;;;;;;12.50;1.95;;;;;;;10.07;91.92;99116.31;8377215;28;20045;-79
2022/01/03 19:30:00;;;;;;;10.77;1.95;;;;;;;10.06;91.86;99111.91;8373398;28;20429;-80